Time;durP1;ratioP1;P1;durP2;ratioP2;P2;SDS_P1;SDS_P2;PMS_P1;PMS_P2;Temp;Humidity;BMP_temperature;BMP_pressure;BME280_temperature;BME280_humidity;BME280_pressure;Samples;Min_cycle;Max_cycle;Signal;HPM_P1;HPM_P2
2023/01/04 00:02:06;;;;;;;10.50;3.05;;;8.90;82.30;;;;;;5131021;27;20054;-68
2023/01/04 00:04:31;;;;;;;8.25;2.17;;;8.90;82.30;;;;;;5130316;27;20553;-67
2023/01/04 00:06:57;;;;;;;5.22;1.73;;;8.90;82.30;;;;;;5130221;27;20031;-67
2023/01/04 00:09:23;;;;;;;7.13;2.30;;;8.90;82.30;;;;;;5113500;28;20074;-67
2023/01/04 00:11:49;;;;;;;7.07;2.20;;;9.00;82.40;;;;;;5130744;27;20135;-67
2023/01/04 00:14:16;;;;;;;9.00;2.60;;;9.00;82.40;;;;;;5130589;28;20397;-68
2023/01/04 00:16:41;;;;;;;8.98;2.50;;;9.00;82.50;;;;;;5113626;28;20086;-67
2023/01/04 00:19:09;;;;;;;7.25;2.63;;;9.00;82.50;;;;;;5141816;27;20071;-68
2023/01/04 00:21:35;;;;;;;6.97;2.30;;;9.00;82.60;;;;;;5113591;27;20039;-69
2023/01/04 00:24:01;;;;;;;6.00;2.20;;;9.00;82.80;;;;;;5130771;27;20127;-68
2023/01/04 00:26:31;;;;;;;10.95;2.78;;;8.90;82.80;;;;;;5113314;28;20035;-69
2023/01/04 00:29:02;;;;;;;5.70;2.70;;;9.00;83.00;;;;;;5127846;27;20043;-68
2023/01/04 00:31:28;;;;;;;6.97;2.25;;;9.00;83.00;;;;;;5133794;27;20035;-67
2023/01/04 00:33:59;;;;;;;7.75;2.72;;;8.90;83.40;;;;;;5134527;27;20079;-67
2023/01/04 00:36:25;;;;;;;7.13;2.72;;;9.00;83.30;;;;;;5135849;27;20047;-67
2023/01/04 00:39:05;;;;;;;7.80;2.72;;;8.90;83.30;;;;;;5117465;27;20031;-68
2023/01/04 00:41:52;;;;;;;8.88;2.85;;;8.90;83.40;;;;;;5117852;27;20100;-67
2023/01/04 00:44:20;;;;;;;7.45;2.65;;;8.90;83.50;;;;;;5133820;27;20088;-67
2023/01/04 00:46:46;;;;;;;8.73;2.50;;;8.90;83.60;;;;;;5134312;27;20596;-67
2023/01/04 00:49:13;;;;;;;7.47;2.40;;;8.90;83.70;;;;;;5117240;27;20038;-67
2023/01/04 00:51:40;;;;;;;6.85;2.50;;;8.90;83.80;;;;;;5134332;27;20043;-67
2023/01/04 00:54:11;;;;;;;7.43;2.53;;;8.90;84.00;;;;;;5134465;27;20048;-67
2023/01/04 00:56:36;;;;;;;8.95;2.38;;;8.90;84.10;;;;;;5134330;27;20386;-67
2023/01/04 00:59:03;;;;;;;7.13;2.88;;;8.90;84.10;;;;;;5134102;27;20038;-67
2023/01/04 01:01:30;;;;;;;9.80;2.88;;;8.90;84.30;;;;;;5134078;27;20035;-67
2023/01/04 01:03:58;;;;;;;6.70;2.58;;;8.90;84.30;;;;;;5133864;27;20054;-67
2023/01/04 01:06:25;;;;;;;7.50;3.13;;;8.90;84.40;;;;;;5117247;27;20038;-67
2023/01/04 01:08:52;;;;;;;7.20;2.85;;;8.90;84.50;;;;;;5133788;27;20027;-67
2023/01/04 01:11:18;;;;;;;7.20;2.35;;;8.90;84.70;;;;;;5116585;27;20092;-67
2023/01/04 01:13:44;;;;;;;6.88;2.60;;;8.90;84.80;;;;;;5116540;27;20046;-67
2023/01/04 01:16:14;;;;;;;6.72;2.95;;;8.90;84.90;;;;;;5122776;27;20035;-67
2023/01/04 01:18:41;;;;;;;9.50;2.72;;;8.90;85.00;;;;;;5131512;27;20039;-67
2023/01/04 01:21:12;;;;;;;7.40;2.80;;;8.80;85.00;;;;;;5133572;27;20040;-67
2023/01/04 01:23:38;;;;;;;9.10;3.08;;;8.80;85.10;;;;;;5133320;27;20164;-67
2023/01/04 01:26:08;;;;;;;8.02;2.75;;;8.90;85.30;;;;;;5131509;27;20507;-67
2023/01/04 01:28:35;;;;;;;8.02;2.70;;;8.80;85.30;;;;;;5116534;27;20039;-67
2023/01/04 01:31:09;;;;;;;8.55;2.85;;;8.90;85.50;;;;;;5133175;27;20047;-67
2023/01/04 01:33:37;;;;;;;6.10;2.83;;;8.90;85.60;;;;;;5147139;27;20475;-67
2023/01/04 01:36:03;;;;;;;5.78;2.38;;;8.90;85.70;;;;;;5116413;27;20035;-67
2023/01/04 01:38:29;;;;;;;6.47;2.58;;;8.90;85.80;;;;;;5133158;27;20535;-67
2023/01/04 01:40:55;;;;;;;7.43;2.30;;;8.90;85.90;;;;;;5132388;27;20039;-67
2023/01/04 01:43:42;;;;;;;5.78;2.30;;;8.90;86.00;;;;;;5133218;27;20031;-67
2023/01/04 01:46:08;;;;;;;6.65;2.67;;;8.90;86.10;;;;;;5148850;27;20457;-67
2023/01/04 01:48:33;;;;;;;4.43;2.10;;;8.90;86.20;;;;;;5133021;27;20039;-67
2023/01/04 01:51:02;;;;;;;5.35;2.75;;;8.90;86.20;;;;;;5115838;27;20058;-67
2023/01/04 01:53:32;;;;;;;4.63;2.22;;;8.90;86.40;;;;;;5132286;27;20039;-67
2023/01/04 01:56:00;;;;;;;4.97;2.00;;;8.90;86.50;;;;;;5132970;27;20043;-67
2023/01/04 01:58:41;;;;;;;4.15;2.40;;;8.90;86.50;;;;;;5132777;27;20027;-67
2023/01/04 02:01:07;;;;;;;5.07;1.83;;;8.90;86.70;;;;;;5132902;27;20738;-67
2023/01/04 02:03:39;;;;;;;6.72;2.67;;;8.90;86.70;;;;;;5132806;27;20423;-67
2023/01/04 02:06:09;;;;;;;3.45;1.90;;;8.90;86.90;;;;;;5132521;27;20071;-67
2023/01/04 02:08:37;;;;;;;3.45;2.30;;;8.90;86.90;;;;;;5132884;27;20130;-67
2023/01/04 02:11:04;;;;;;;3.80;1.73;;;8.90;87.00;;;;;;5132549;27;20050;-67
2023/01/04 02:16:55;;;;;;;3.83;1.65;;;8.90;87.20;;;;;;5109801;27;20047;-67
2023/01/04 02:19:32;;;;;;;2.30;1.40;;;8.90;87.30;;;;;;5132415;27;20437;-67
2023/01/04 02:22:23;;;;;;;4.72;1.60;;;8.90;87.30;;;;;;5131205;27;20046;-67
2023/01/04 02:25:13;;;;;;;3.33;1.27;;;8.90;87.40;;;;;;5139711;27;20071;-67
2023/01/04 02:27:47;;;;;;;3.53;1.40;;;9.00;87.60;;;;;;5113670;27;20036;-67
2023/01/04 02:30:38;;;;;;;2.53;1.15;;;9.00;87.70;;;;;;5132516;27;20083;-67
2023/01/04 02:33:25;;;;;;;2.83;1.25;;;9.00;87.70;;;;;;5132442;27;20460;-67
2023/01/04 02:36:32;;;;;;;2.40;1.20;;;9.00;87.70;;;;;;5132119;27;20035;-68
2023/01/04 02:39:07;;;;;;;3.35;1.20;;;9.00;87.90;;;;;;5114960;27;20481;-67
2023/01/04 02:42:00;;;;;;;2.83;1.35;;;9.00;87.90;;;;;;5114998;27;20050;-67
2023/01/04 02:44:52;;;;;;;2.20;1.02;;;9.10;88.10;;;;;;5130278;27;20039;-67
2023/01/04 02:50:30;;;;;;;1.65;1.15;;;9.10;88.20;;;;;;5132334;27;20061;-69
2023/01/04 02:52:58;;;;;;;2.03;1.13;;;9.10;88.30;;;;;;5130963;27;20039;-69
2023/01/04 02:55:28;;;;;;;2.55;1.50;;;9.10;88.30;;;;;;5131996;27;20039;-69
2023/01/04 02:58:06;;;;;;;1.80;1.15;;;9.10;88.30;;;;;;5129432;27;20050;-69
2023/01/04 03:07:46;;;;;;;4.20;1.63;;;9.20;88.70;;;;;;5131807;27;20110;-70
2023/01/04 03:10:34;;;;;;;3.30;1.48;;;9.20;88.80;;;;;;5130694;27;20031;-70
2023/01/04 03:13:14;;;;;;;4.97;2.15;;;9.20;88.80;;;;;;5131687;27;20043;-69
2023/01/04 03:15:41;;;;;;;2.72;2.08;;;9.20;88.90;;;;;;5130692;27;20038;-70
2023/01/04 03:18:25;;;;;;;4.75;2.20;;;9.30;89.10;;;;;;5114765;27;20031;-69
2023/01/04 03:20:54;;;;;;;4.75;2.40;;;9.30;89.10;;;;;;5128708;27;20126;-69
2023/01/04 03:37:50;;;;;;;4.25;2.80;;;9.50;89.50;;;;;;5116608;27;20126;-71
2023/01/04 03:49:35;;;;;;;3.67;2.90;;;9.50;89.70;;;;;;5135249;27;20096;-68
2023/01/04 03:52:03;;;;;;;5.63;3.30;;;9.60;90.00;;;;;;5129219;27;20031;-68
2023/01/04 03:54:38;;;;;;;3.95;3.15;;;9.60;89.90;;;;;;5131098;27;20031;-68
2023/01/04 03:57:05;;;;;;;4.20;3.03;;;9.60;90.00;;;;;;5128773;27;20485;-68
2023/01/04 03:59:35;;;;;;;4.65;3.00;;;9.60;90.00;;;;;;5130971;27;20078;-68
2023/01/04 04:02:02;;;;;;;4.30;3.10;;;9.70;90.00;;;;;;5130365;27;20039;-68
2023/01/04 04:09:55;;;;;;;5.13;3.97;;;9.70;90.00;;;;;;5116204;28;20096;-70
2023/01/04 04:12:21;;;;;;;5.32;3.50;;;9.80;90.10;;;;;;5113417;28;20039;-69
2023/01/04 04:14:47;;;;;;;4.70;3.97;;;9.80;90.10;;;;;;5096630;27;20047;-72
2023/01/04 04:17:12;;;;;;;5.32;3.80;;;9.80;90.10;;;;;;5096448;28;20217;-72
2023/01/04 04:19:38;;;;;;;4.82;4.15;;;9.80;90.20;;;;;;5130111;28;20088;-73
2023/01/04 04:22:04;;;;;;;5.57;4.13;;;9.80;90.10;;;;;;5113539;28;20036;-73
2023/01/04 04:24:29;;;;;;;6.40;4.50;;;9.90;90.20;;;;;;5130734;27;20202;-73
2023/01/04 04:26:55;;;;;;;5.32;4.38;;;9.90;90.20;;;;;;5113497;28;20043;-73
2023/01/04 04:29:22;;;;;;;5.28;4.38;;;9.90;90.20;;;;;;5130473;28;20057;-72
2023/01/04 04:31:47;;;;;;;7.50;5.25;;;9.90;90.20;;;;;;5113580;28;20050;-72
2023/01/04 04:34:13;;;;;;;6.75;4.68;;;9.90;90.30;;;;;;5129821;28;20127;-72
2023/01/04 04:36:39;;;;;;;5.20;4.65;;;10.00;90.30;;;;;;5130751;27;20042;-74
2023/01/04 04:39:05;;;;;;;6.28;4.88;;;10.00;90.30;;;;;;5131001;28;20047;-73
2023/01/04 04:41:42;;;;;;;5.30;4.70;;;10.00;90.30;;;;;;5130699;28;20035;-73
2023/01/04 04:44:16;;;;;;;6.35;4.80;;;10.00;90.30;;;;;;5121339;27;20459;-73
2023/01/04 04:46:43;;;;;;;5.97;4.72;;;10.10;90.40;;;;;;5112187;28;20039;-73
2023/01/04 04:49:10;;;;;;;6.85;4.50;;;10.10;90.40;;;;;;5130611;28;20046;-73
2023/01/04 04:51:36;;;;;;;5.80;4.80;;;10.10;90.40;;;;;;5130614;28;20089;-73
2023/01/04 04:54:03;;;;;;;6.22;5.10;;;10.10;90.40;;;;;;5120148;27;20045;-73
2023/01/04 04:56:29;;;;;;;8.18;5.50;;;10.20;90.40;;;;;;5113827;27;20490;-73
2023/01/04 04:58:54;;;;;;;5.88;5.28;;;10.20;90.40;;;;;;5130324;28;20064;-73
2023/01/04 05:01:20;;;;;;;7.55;5.45;;;10.20;90.60;;;;;;5096367;28;20031;-73
2023/01/04 05:03:46;;;;;;;6.22;5.35;;;10.20;90.50;;;;;;5113808;28;20037;-73
2023/01/04 05:06:12;;;;;;;8.00;5.22;;;10.20;90.40;;;;;;5113723;28;20035;-73
2023/01/04 05:08:38;;;;;;;6.45;4.68;;;10.30;90.50;;;;;;5130246;27;20042;-73
2023/01/04 05:11:06;;;;;;;5.90;5.20;;;10.30;90.50;;;;;;5130897;27;20039;-73
2023/01/04 05:13:31;;;;;;;5.78;4.88;;;10.30;90.50;;;;;;5130420;28;20035;-73
2023/01/04 05:15:57;;;;;;;7.68;5.25;;;10.30;90.50;;;;;;5114415;27;20050;-73
2023/01/04 05:18:23;;;;;;;6.50;5.28;;;10.30;90.50;;;;;;5134484;27;20457;-73
2023/01/04 05:20:48;;;;;;;6.28;5.68;;;10.30;90.50;;;;;;5134408;27;20048;-73
2023/01/04 05:23:18;;;;;;;6.40;4.97;;;10.40;90.50;;;;;;5134255;27;20058;-73
2023/01/04 05:25:44;;;;;;;5.70;5.10;;;10.40;90.60;;;;;;5133787;27;20039;-73
2023/01/04 05:28:10;;;;;;;6.80;5.25;;;10.40;90.50;;;;;;5134193;27;20478;-73
2023/01/04 05:30:52;;;;;;;6.25;5.55;;;10.40;90.60;;;;;;5134274;27;20035;-73
2023/01/04 05:33:28;;;;;;;8.45;5.72;;;10.40;90.60;;;;;;5132192;27;20046;-73
2023/01/04 05:35:56;;;;;;;7.32;5.53;;;10.50;90.60;;;;;;5124150;27;20043;-73
2023/01/04 05:38:23;;;;;;;7.03;5.38;;;10.50;90.60;;;;;;5116872;27;20035;-73
2023/01/04 05:40:50;;;;;;;7.13;5.50;;;10.50;90.60;;;;;;5133711;27;20513;-73
2023/01/04 05:43:18;;;;;;;7.93;5.85;;;10.50;90.60;;;;;;5143744;27;20039;-73
2023/01/04 05:45:48;;;;;;;8.82;5.15;;;10.50;90.60;;;;;;5132136;27;20126;-73
2023/01/04 05:48:13;;;;;;;7.45;5.45;;;10.60;90.60;;;;;;5133845;27;20051;-74
2023/01/04 05:50:39;;;;;;;7.97;5.15;;;10.60;90.60;;;;;;5133764;27;20039;-73
2023/01/04 05:53:06;;;;;;;6.72;5.07;;;10.60;90.60;;;;;;5133485;27;20058;-73
2023/01/04 05:55:32;;;;;;;6.50;5.30;;;10.60;90.60;;;;;;5134384;27;20072;-73
2023/01/04 05:57:58;;;;;;;7.00;4.90;;;10.60;90.60;;;;;;5116295;27;20126;-73
2023/01/04 06:00:24;;;;;;;8.20;4.93;;;10.60;90.60;;;;;;5134062;27;20390;-74
2023/01/04 06:02:54;;;;;;;7.40;4.75;;;10.60;90.60;;;;;;5116708;27;20098;-74
2023/01/04 06:05:21;;;;;;;7.10;4.75;;;10.60;90.60;;;;;;5097851;27;20031;-74
2023/01/04 06:07:46;;;;;;;10.82;5.15;;;10.70;90.60;;;;;;5133843;27;20035;-74
2023/01/04 06:10:12;;;;;;;6.68;5.30;;;10.70;90.60;;;;;;5116505;27;20385;-74
2023/01/04 06:12:39;;;;;;;7.55;4.82;;;10.70;90.60;;;;;;5133338;27;20076;-75
2023/01/04 06:15:05;;;;;;;10.38;4.95;;;10.70;90.60;;;;;;5133373;27;20039;-76
2023/01/04 06:17:32;;;;;;;7.90;4.97;;;10.70;90.60;;;;;;5133912;27;20435;-75
2023/01/04 06:19:57;;;;;;;8.07;4.93;;;10.70;90.60;;;;;;5115984;27;20120;-75
2023/01/04 06:22:25;;;;;;;7.72;4.63;;;10.70;90.60;;;;;;5133903;27;20432;-76
2023/01/04 06:24:51;;;;;;;7.68;5.60;;;10.70;90.60;;;;;;5116588;27;20058;-76
2023/01/04 06:27:17;;;;;;;8.23;5.15;;;10.80;90.70;;;;;;5132874;27;20031;-76
2023/01/04 06:29:43;;;;;;;7.13;4.68;;;10.80;90.70;;;;;;5115506;27;20118;-75
2023/01/04 06:32:09;;;;;;;6.60;4.30;;;10.80;90.70;;;;;;5133276;27;20428;-75
2023/01/04 06:34:34;;;;;;;5.88;3.60;;;10.80;90.70;;;;;;5115879;27;20516;-76
2023/01/04 06:37:00;;;;;;;5.10;3.72;;;10.80;90.70;;;;;;5133890;27;20046;-75
2023/01/04 06:39:26;;;;;;;7.90;3.63;;;10.80;90.70;;;;;;5102623;27;20050;-75
2023/01/04 06:41:51;;;;;;;5.53;3.25;;;10.80;90.70;;;;;;5133765;27;20031;-75
2023/01/04 06:44:17;;;;;;;5.47;3.05;;;10.80;90.70;;;;;;5133697;27;20043;-75
2023/01/04 06:46:43;;;;;;;5.70;2.90;;;10.80;90.70;;;;;;5133606;27;20047;-76
2023/01/04 06:49:08;;;;;;;4.85;3.03;;;10.90;90.70;;;;;;5133403;27;20398;-73
2023/01/04 06:51:34;;;;;;;4.93;2.55;;;10.90;90.90;;;;;;5133431;27;20043;-74
2023/01/04 06:54:00;;;;;;;4.32;2.38;;;10.90;90.70;;;;;;5133598;27;20118;-74
2023/01/04 06:56:25;;;;;;;3.42;2.20;;;10.90;90.70;;;;;;5116401;27;20039;-73
2023/01/04 06:58:51;;;;;;;3.22;1.90;;;10.90;90.70;;;;;;5133707;27;20043;-74
2023/01/04 07:01:17;;;;;;;3.60;1.65;;;10.90;90.70;;;;;;5115995;27;20482;-74
2023/01/04 07:03:42;;;;;;;4.43;1.90;;;10.90;90.70;;;;;;5115972;27;20478;-75
2023/01/04 07:06:09;;;;;;;3.03;1.85;;;10.90;90.70;;;;;;5133272;27;20405;-75
2023/01/04 07:08:35;;;;;;;3.33;1.95;;;10.90;90.70;;;;;;5132960;27;20039;-75
2023/01/04 07:11:01;;;;;;;2.80;1.58;;;10.90;90.70;;;;;;5133660;27;20140;-75
2023/01/04 07:13:26;;;;;;;2.10;1.80;;;10.90;90.70;;;;;;5132250;27;20116;-72
2023/01/04 07:15:52;;;;;;;2.58;1.73;;;10.90;90.70;;;;;;5114796;27;20517;-72
2023/01/04 07:18:18;;;;;;;3.20;1.90;;;11.00;90.70;;;;;;5114667;27;20490;-72
2023/01/04 07:20:43;;;;;;;3.08;1.85;;;11.00;90.70;;;;;;5097768;27;20049;-72
2023/01/04 07:23:09;;;;;;;2.22;1.92;;;11.00;90.70;;;;;;5115359;27;20130;-72
2023/01/04 07:25:35;;;;;;;2.88;2.40;;;11.00;90.70;;;;;;5114797;27;20038;-72
2023/01/04 07:28:01;;;;;;;3.75;2.15;;;11.00;90.70;;;;;;5132058;27;20378;-71
2023/01/04 07:30:27;;;;;;;3.50;2.50;;;11.00;90.60;;;;;;5132195;27;20096;-71
2023/01/04 07:32:54;;;;;;;3.22;2.30;;;11.00;90.70;;;;;;5128337;27;20379;-71
2023/01/04 07:35:26;;;;;;;3.17;2.40;;;11.00;90.70;;;;;;5099780;27;20424;-71
2023/01/04 07:37:52;;;;;;;3.95;2.38;;;11.00;90.70;;;;;;5115294;27;20043;-71
2023/01/04 07:40:17;;;;;;;3.22;2.40;;;11.00;90.70;;;;;;5098483;27;20429;-71
2023/01/04 07:42:43;;;;;;;3.45;2.30;;;11.00;90.70;;;;;;5115813;27;20482;-71
2023/01/04 07:45:09;;;;;;;3.83;2.83;;;11.10;90.70;;;;;;5098797;27;20031;-71
2023/01/04 07:47:35;;;;;;;4.75;3.58;;;11.10;90.60;;;;;;5132721;27;20070;-71
2023/01/04 07:50:01;;;;;;;5.03;3.33;;;11.10;90.60;;;;;;5132743;27;20039;-71
2023/01/04 07:52:26;;;;;;;4.25;3.35;;;11.10;90.70;;;;;;5132169;27;20043;-71
2023/01/04 07:54:52;;;;;;;5.85;3.30;;;11.10;90.70;;;;;;5131973;27;20079;-71
2023/01/04 07:57:18;;;;;;;5.00;3.90;;;11.10;90.70;;;;;;5115201;27;20034;-70
2023/01/04 07:59:44;;;;;;;6.07;3.92;;;11.10;90.70;;;;;;5115085;27;20515;-70
2023/01/04 08:02:11;;;;;;;6.18;4.18;;;11.10;90.70;;;;;;5095015;28;20035;-71
2023/01/04 08:04:37;;;;;;;4.95;3.90;;;11.10;90.70;;;;;;5128737;27;20031;-70
2023/01/04 08:07:03;;;;;;;6.05;4.20;;;11.10;90.70;;;;;;5115306;27;20038;-70
2023/01/04 08:09:28;;;;;;;6.13;4.22;;;11.10;90.70;;;;;;5132511;27;20132;-70
2023/01/04 08:11:54;;;;;;;5.15;3.90;;;11.10;90.70;;;;;;5115520;28;20073;-71
2023/01/04 08:14:20;;;;;;;4.63;3.42;;;11.20;90.70;;;;;;5132950;27;20095;-70
2023/01/04 08:16:45;;;;;;;6.90;4.10;;;11.20;90.70;;;;;;5132291;27;20046;-71
2023/01/04 08:19:17;;;;;;;5.85;3.83;;;11.20;90.70;;;;;;5114977;28;20142;-71
2023/01/04 08:21:43;;;;;;;4.97;3.90;;;11.20;90.80;;;;;;5132062;27;20051;-71
2023/01/04 08:24:15;;;;;;;6.50;4.28;;;11.20;90.70;;;;;;5132584;27;20394;-71
2023/01/04 08:26:41;;;;;;;5.53;3.95;;;11.20;90.70;;;;;;5138984;27;20453;-71
2023/01/04 08:29:07;;;;;;;6.03;4.07;;;11.20;90.70;;;;;;5152298;27;20089;-71
2023/01/04 08:31:33;;;;;;;6.07;3.47;;;11.20;90.70;;;;;;5151509;27;20102;-71
2023/01/04 08:34:02;;;;;;;5.15;3.15;;;11.20;90.70;;;;;;5151179;27;20042;-71
2023/01/04 08:36:33;;;;;;;4.15;3.20;;;11.30;90.80;;;;;;5114290;28;20047;-72
2023/01/04 08:39:03;;;;;;;3.92;3.00;;;11.30;90.80;;;;;;5132397;27;20386;-72
2023/01/04 08:41:30;;;;;;;3.95;2.45;;;11.30;90.70;;;;;;5131921;27;20051;-71
2023/01/04 08:43:56;;;;;;;5.15;3.40;;;11.30;90.70;;;;;;5132496;28;20058;-71
2023/01/04 08:46:22;;;;;;;5.32;2.38;;;11.30;90.70;;;;;;5132220;28;20032;-71
2023/01/04 08:48:48;;;;;;;4.22;2.42;;;11.30;90.70;;;;;;5115092;28;20096;-71
2023/01/04 08:51:15;;;;;;;5.72;2.97;;;11.30;90.70;;;;;;5133152;27;20075;-71
2023/01/04 08:53:41;;;;;;;3.33;2.20;;;11.30;90.70;;;;;;5136141;27;20043;-71
2023/01/04 08:56:08;;;;;;;2.60;1.98;;;11.30;90.70;;;;;;5135715;27;20103;-71
2023/01/04 08:58:35;;;;;;;2.88;2.10;;;11.30;90.70;;;;;;5119005;27;20027;-71
2023/01/04 09:01:06;;;;;;;4.97;2.10;;;11.30;90.70;;;;;;5136257;27;20375;-71
2023/01/04 09:03:32;;;;;;;2.63;1.70;;;11.30;90.70;;;;;;5136196;27;20099;-71
2023/01/04 09:06:07;;;;;;;2.60;1.70;;;11.30;90.70;;;;;;5118675;27;20035;-71
2023/01/04 09:08:34;;;;;;;2.83;1.90;;;11.30;90.80;;;;;;5118359;27;20031;-72
2023/01/04 09:11:07;;;;;;;3.20;1.50;;;11.30;90.70;;;;;;5118992;27;20051;-72
2023/01/04 09:13:34;;;;;;;3.40;1.30;;;11.30;90.80;;;;;;5118529;27;20470;-72
2023/01/04 09:16:01;;;;;;;1.80;1.30;;;11.30;90.70;;;;;;5135827;27;20051;-72
2023/01/04 09:18:27;;;;;;;1.95;1.13;;;11.30;90.70;;;;;;5135675;27;20039;-72
2023/01/04 09:20:53;;;;;;;2.10;1.15;;;11.30;90.70;;;;;;5135487;27;20178;-72
2023/01/04 09:23:19;;;;;;;1.90;1.25;;;11.30;90.70;;;;;;5135708;27;20046;-72
2023/01/04 09:25:44;;;;;;;1.95;0.90;;;11.40;90.80;;;;;;5118518;27;20035;-71
2023/01/04 09:28:10;;;;;;;1.27;0.98;;;11.40;90.80;;;;;;5135266;27;20046;-72
2023/01/04 09:30:36;;;;;;;3.22;1.10;;;11.40;90.80;;;;;;5135374;27;20114;-71
2023/01/04 09:33:04;;;;;;;1.52;1.17;;;11.40;90.80;;;;;;5101199;27;20039;-72
2023/01/04 09:35:30;;;;;;;2.05;1.00;;;11.40;90.80;;;;;;5135162;27;20031;-73
2023/01/04 09:37:55;;;;;;;1.27;0.82;;;11.40;90.80;;;;;;5135046;27;20040;-72
2023/01/04 09:40:28;;;;;;;2.88;1.30;;;11.40;90.80;;;;;;5101071;27;20051;-72
2023/01/04 09:42:54;;;;;;;2.22;0.82;;;11.40;90.80;;;;;;5134906;27;21034;-72
2023/01/04 09:45:23;;;;;;;3.08;1.30;;;11.40;90.80;;;;;;5135171;27;20081;-69
2023/01/04 09:48:12;;;;;;;2.50;1.15;;;11.40;90.80;;;;;;5134825;27;20478;-72
2023/01/04 09:50:51;;;;;;;2.63;1.10;;;11.50;90.80;;;;;;5134452;27;20107;-72
2023/01/04 09:53:34;;;;;;;4.15;1.40;;;11.50;90.80;;;;;;5117834;27;20114;-72
2023/01/04 09:56:16;;;;;;;4.03;1.30;;;11.50;90.80;;;;;;5134670;27;20043;-71
2023/01/04 09:58:42;;;;;;;5.35;1.38;;;11.50;90.80;;;;;;5117660;27;20505;-69
2023/01/04 10:01:22;;;;;;;6.45;1.63;;;11.50;90.80;;;;;;5134909;27;20054;-69
2023/01/04 10:04:10;;;;;;;6.78;1.70;;;11.60;90.90;;;;;;5134681;27;20031;-70
2023/01/04 10:06:36;;;;;;;6.53;1.58;;;11.60;90.90;;;;;;5135040;27;20070;-70
2023/01/04 10:09:09;;;;;;;9.05;2.13;;;11.60;90.80;;;;;;5134631;27;20039;-70
2023/01/04 10:12:00;;;;;;;7.68;1.73;;;11.60;90.90;;;;;;5134658;27;20050;-70
2023/01/04 10:14:35;;;;;;;11.50;2.10;;;11.60;90.90;;;;;;5134604;27;20134;-70
2023/01/04 10:17:24;;;;;;;13.35;2.47;;;11.60;90.90;;;;;;5134250;27;20039;-70
2023/01/04 10:20:11;;;;;;;10.15;2.72;;;11.60;90.90;;;;;;5133758;27;20155;-70
2023/01/04 10:22:55;;;;;;;15.30;2.45;;;11.70;90.90;;;;;;5134033;27;20047;-70
2023/01/04 10:25:27;;;;;;;14.07;3.33;;;11.70;90.90;;;;;;5134540;27;20125;-71
2023/01/04 10:28:17;;;;;;;14.00;3.00;;;11.70;90.80;;;;;;5117143;27;20043;-70
2023/01/04 10:31:04;;;;;;;17.13;3.20;;;11.70;90.90;;;;;;5134331;27;20047;-70
2023/01/04 10:33:49;;;;;;;23.02;4.35;;;11.70;90.80;;;;;;5134542;27;20425;-70
2023/01/04 10:36:30;;;;;;;15.93;3.13;;;11.70;90.80;;;;;;5123098;27;20119;-70
2023/01/04 10:39:11;;;;;;;15.75;3.72;;;11.70;90.80;;;;;;5134088;27;20498;-70
2023/01/04 10:41:49;;;;;;;19.30;4.20;;;11.70;90.80;;;;;;5134108;27;20123;-71
2023/01/04 10:44:32;;;;;;;15.13;3.17;;;11.80;90.80;;;;;;5117246;27;20031;-70
2023/01/04 10:47:21;;;;;;;20.98;3.53;;;11.80;90.70;;;;;;5116856;27;20035;-70
2023/01/04 10:49:55;;;;;;;16.77;3.65;;;11.80;90.70;;;;;;5133916;27;20446;-70
2023/01/04 10:52:31;;;;;;;15.63;3.17;;;11.80;90.70;;;;;;5135302;27;20035;-71
2023/01/04 10:55:14;;;;;;;22.42;3.53;;;11.80;90.60;;;;;;5151324;27;20046;-70
2023/01/04 10:58:03;;;;;;;18.77;4.00;;;11.80;90.60;;;;;;5133965;27;20050;-71
2023/01/04 11:00:39;;;;;;;22.80;3.97;;;11.80;90.60;;;;;;5133763;27;20043;-70
2023/01/04 11:03:13;;;;;;;15.43;3.75;;;11.80;90.60;;;;;;5150898;27;20100;-70
2023/01/04 11:05:56;;;;;;;16.40;4.50;;;11.90;90.60;;;;;;5133902;27;20368;-70
2023/01/04 11:08:49;;;;;;;17.20;4.45;;;11.90;90.60;;;;;;5133339;27;20043;-70
2023/01/04 11:11:23;;;;;;;15.93;3.53;;;11.90;90.50;;;;;;5106991;28;20460;-71
2023/01/04 11:13:49;;;;;;;16.45;3.63;;;11.90;90.50;;;;;;5112339;28;20047;-71
2023/01/04 11:16:15;;;;;;;16.25;3.67;;;11.90;90.50;;;;;;5095832;28;20043;-71
2023/01/04 11:18:42;;;;;;;21.05;4.38;;;11.90;90.50;;;;;;5127270;27;20440;-71
2023/01/04 11:21:12;;;;;;;21.42;4.68;;;11.90;90.40;;;;;;5133160;27;20049;-71
2023/01/04 11:23:37;;;;;;;19.27;3.80;;;12.00;90.40;;;;;;5115889;27;20095;-70
2023/01/04 11:26:12;;;;;;;19.40;3.90;;;12.00;90.40;;;;;;5116046;27;20121;-70
2023/01/04 11:28:51;;;;;;;16.02;3.70;;;12.00;90.40;;;;;;5116389;27;20083;-70
2023/01/04 11:31:42;;;;;;;20.52;3.47;;;12.00;90.40;;;;;;5133074;27;20585;-71
2023/01/04 11:34:08;;;;;;;20.50;4.18;;;12.00;90.30;;;;;;5133157;27;20047;-71
2023/01/04 11:36:41;;;;;;;20.27;4.05;;;12.10;90.30;;;;;;5132995;27;20119;-71
2023/01/04 11:39:22;;;;;;;19.92;4.15;;;12.10;90.30;;;;;;5132686;27;20043;-71
2023/01/04 11:41:56;;;;;;;19.38;3.60;;;12.10;90.30;;;;;;5132996;27;20043;-70
2023/01/04 11:44:23;;;;;;;16.27;3.83;;;12.10;90.30;;;;;;5132651;27;20050;-71
2023/01/04 11:47:18;;;;;;;17.17;2.97;;;12.10;90.20;;;;;;5132849;27;20118;-71
2023/01/04 11:49:44;;;;;;;13.70;2.83;;;12.10;90.20;;;;;;5133120;27;20051;-71
2023/01/04 11:52:34;;;;;;;12.68;3.30;;;12.20;90.20;;;;;;5133091;27;20362;-71
2023/01/04 11:55:15;;;;;;;12.57;3.17;;;12.20;90.20;;;;;;5115609;27;20051;-71
2023/01/04 11:57:41;;;;;;;12.93;2.67;;;12.20;90.20;;;;;;5132708;27;20126;-71
2023/01/04 12:00:13;;;;;;;11.30;2.45;;;12.20;90.10;;;;;;5132343;27;20134;-71
2023/01/04 12:02:38;;;;;;;6.68;2.15;;;12.20;90.10;;;;;;5115350;27;20032;-71
2023/01/04 12:05:21;;;;;;;10.00;2.05;;;12.20;90.00;;;;;;5132560;27;20573;-71
2023/01/04 12:07:47;;;;;;;8.70;1.50;;;12.20;90.00;;;;;;5132629;27;20043;-71
2023/01/04 12:10:21;;;;;;;7.03;1.20;;;12.20;90.00;;;;;;5132894;27;20046;-71
2023/01/04 12:12:47;;;;;;;6.28;1.70;;;12.20;90.00;;;;;;5114952;28;20074;-71
2023/01/04 12:15:33;;;;;;;4.80;1.02;;;12.20;89.90;;;;;;5132780;28;20072;-71
2023/01/04 12:18:09;;;;;;;7.78;1.20;;;12.20;89.80;;;;;;5131677;27;20043;-71
2023/01/04 12:20:35;;;;;;;5.03;1.00;;;12.20;89.90;;;;;;5131711;28;20047;-71
2023/01/04 12:23:01;;;;;;;4.10;1.05;;;12.30;89.90;;;;;;5132169;28;20048;-71
2023/01/04 12:25:44;;;;;;;7.78;1.70;;;12.20;89.90;;;;;;5132431;27;20039;-71
2023/01/04 12:28:30;;;;;;;4.18;1.52;;;12.30;89.90;;;;;;5136732;27;20121;-70
2023/01/04 12:31:19;;;;;;;8.05;2.10;;;12.30;89.80;;;;;;5136646;27;20491;-70
2023/01/04 12:33:52;;;;;;;6.50;2.13;;;12.30;89.70;;;;;;5136759;27;20497;-71
2023/01/04 12:36:41;;;;;;;4.05;1.52;;;12.30;89.70;;;;;;5138955;27;20043;-71
2023/01/04 12:39:13;;;;;;;6.72;1.55;;;12.30;89.50;;;;;;5136419;27;20391;-70
2023/01/04 12:41:39;;;;;;;10.38;2.28;;;12.30;89.40;;;;;;5136362;27;20091;-71
2023/01/04 12:44:35;;;;;;;6.38;1.88;;;12.30;89.30;;;;;;5119184;27;20043;-71
2023/01/04 12:49:58;;;;;;;8.90;1.98;;;12.30;89.00;;;;;;5136172;27;20043;-71
2023/01/04 12:52:24;;;;;;;13.45;2.83;;;12.30;89.00;;;;;;5118598;27;20043;-71
2023/01/04 12:54:59;;;;;;;10.00;2.33;;;12.30;88.90;;;;;;5135957;27;20383;-71
2023/01/04 12:57:33;;;;;;;10.30;2.72;;;12.30;88.70;;;;;;5136433;27;20057;-71
2023/01/04 13:00:11;;;;;;;;;;;12.30;88.70;;;;;;5136510;27;20122;-71
2023/01/04 13:02:46;;;;;;;12.85;2.42;;;12.20;88.30;;;;;;5136359;27;20270;-71
2023/01/04 13:05:18;;;;;;;19.25;3.25;;;12.20;88.60;;;;;;5118889;27;20039;-71
2023/01/04 13:07:46;;;;;;;12.93;3.45;;;12.20;88.50;;;;;;5135696;27;20058;-72
2023/01/04 13:10:38;;;;;;;16.48;3.00;;;12.20;88.40;;;;;;5135771;27;20039;-71
2023/01/04 13:13:25;;;;;;;10.55;2.75;;;12.20;88.20;;;;;;5136094;27;20075;-71
2023/01/04 13:16:10;;;;;;;13.18;3.22;;;12.20;88.20;;;;;;5135730;27;20502;-71
2023/01/04 13:18:42;;;;;;;;;;;12.20;88.10;;;;;;5136316;27;20398;-70
2023/01/04 13:21:35;;;;;;;13.80;3.72;;;12.20;88.20;;;;;;5135344;27;20431;-71
2023/01/04 13:24:17;;;;;;;12.27;2.78;;;12.20;88.10;;;;;;5135583;27;20077;-71
2023/01/04 13:26:50;;;;;;;14.00;3.28;;;12.20;87.90;;;;;;5132051;27;20043;-71
2023/01/04 13:29:25;;;;;;;16.42;3.72;;;12.20;87.90;;;;;;5114961;28;20050;-71
2023/01/04 13:32:03;;;;;;;15.93;3.70;;;12.20;87.80;;;;;;5115158;28;20390;-70
2023/01/04 13:34:32;;;;;;;13.07;3.70;;;12.20;87.80;;;;;;5121891;27;20031;-70
2023/01/04 13:37:10;;;;;;;18.75;3.30;;;12.20;87.80;;;;;;5134769;27;20046;-70
2023/01/04 13:39:50;;;;;;;19.52;3.58;;;12.20;87.70;;;;;;5135404;27;20437;-70
2023/01/04 13:42:22;;;;;;;18.67;4.13;;;12.20;87.60;;;;;;5117657;27;20035;-70
2023/01/04 13:45:26;;;;;;;16.30;3.28;;;12.20;87.60;;;;;;5135221;27;20385;-71
2023/01/04 13:47:57;;;;;;;15.80;4.03;;;12.20;87.40;;;;;;5135165;27;20084;-71
2023/01/04 13:50:55;;;;;;;12.13;2.78;;;12.20;87.50;;;;;;5134860;27;20136;-71
2023/01/04 13:53:25;;;;;;;23.02;3.70;;;12.20;87.40;;;;;;5124413;27;20138;-71
2023/01/04 13:55:57;;;;;;;18.17;3.22;;;12.20;87.50;;;;;;5152103;27;20121;-71